createdAt,value
2022-09-12T00:00:26.834Z,6.45
2022-09-12T00:01:08.683Z,6.40
2022-09-12T00:01:41.736Z,6.53
2022-09-12T00:02:16.193Z,6.38
2022-09-12T00:02:54.974Z,6.55
2022-09-12T00:03:28.793Z,6.18
2022-09-12T00:04:03.755Z,6.47
2022-09-12T00:04:38.613Z,6.72
2022-09-12T00:05:13.339Z,6.53
2022-09-12T00:05:48.770Z,6.15
2022-09-12T00:06:24.662Z,6.53
2022-09-12T00:07:00.874Z,6.25
2022-09-12T00:07:34.591Z,6.07
2022-09-12T00:08:07.905Z,6.30
2022-09-12T00:08:42.621Z,7.15
2022-09-12T00:09:16.069Z,6.75
2022-09-12T00:09:51.169Z,6.95
2022-09-12T00:10:26.693Z,6.30
2022-09-12T00:11:05.885Z,6.57
2022-09-12T00:11:40.376Z,6.35
2022-09-12T00:12:14.769Z,6.47
2022-09-12T00:12:48.933Z,6.43
2022-09-12T00:13:22.948Z,6.25
2022-09-12T00:13:58.762Z,7.10
2022-09-12T00:14:32.740Z,6.60
2022-09-12T00:15:07.201Z,6.47
2022-09-12T00:15:42.240Z,6.40
2022-09-12T00:16:17.998Z,7.18
2022-09-12T00:16:52.180Z,7.07
2022-09-12T00:17:28.581Z,6.78
2022-09-12T00:18:01.891Z,6.32
2022-09-12T00:18:35.588Z,6.45
2022-09-12T00:19:10.990Z,6.60
2022-09-12T00:19:45.126Z,7.03
2022-09-12T00:20:20.982Z,7.18
2022-09-12T00:20:55.121Z,6.72
2022-09-12T00:21:29.749Z,6.68
2022-09-12T00:22:05.141Z,6.28
2022-09-12T00:22:40.444Z,6.93
2022-09-12T00:23:13.819Z,7.00
2022-09-12T00:23:47.712Z,6.93
2022-09-12T00:24:22.589Z,6.18
2022-09-12T00:24:56.988Z,6.63
2022-09-12T00:25:32.018Z,6.70
2022-09-12T00:26:07.406Z,6.95
2022-09-12T00:26:41.982Z,6.95
2022-09-12T00:27:15.923Z,6.93
2022-09-12T00:27:50.460Z,7.00
2022-09-12T00:28:24.710Z,7.15
2022-09-12T00:28:59.215Z,6.65
2022-09-12T00:29:35.567Z,6.55
2022-09-12T00:30:11.573Z,6.57
2022-09-12T00:30:45.276Z,6.75
2022-09-12T00:31:21.629Z,6.70
2022-09-12T00:31:55.257Z,6.88
2022-09-12T00:32:29.243Z,7.05
2022-09-12T00:33:03.464Z,6.53
2022-09-12T00:33:37.973Z,6.75
2022-09-12T00:34:11.949Z,6.18
2022-09-12T00:34:46.955Z,6.90
2022-09-12T00:35:22.037Z,6.85
2022-09-12T00:35:55.088Z,7.00
2022-09-12T00:36:30.905Z,7.40
2022-09-12T00:37:06.740Z,6.70
2022-09-12T00:37:41.423Z,7.00
2022-09-12T00:38:16.555Z,6.88
2022-09-12T00:38:50.570Z,6.78
2022-09-12T00:39:25.147Z,6.63
2022-09-12T00:40:00.438Z,6.30
2022-09-12T00:40:35.276Z,6.88
2022-09-12T00:41:09.834Z,6.90
2022-09-12T00:41:44.487Z,6.60
2022-09-12T00:42:18.468Z,7.30
2022-09-12T00:42:53.056Z,6.97
2022-09-12T00:43:39.081Z,6.60
2022-09-12T00:44:31.483Z,6.45
2022-09-12T00:45:06.599Z,7.13
2022-09-12T00:45:42.559Z,6.93
2022-09-12T00:46:22.809Z,6.95
2022-09-12T00:47:00.472Z,6.70
2022-09-12T00:47:34.551Z,6.63
2022-09-12T00:48:08.186Z,6.60
2022-09-12T00:48:45.255Z,6.25
2022-09-12T00:49:23.451Z,6.35
2022-09-12T00:50:00.136Z,6.25
2022-09-12T00:50:36.755Z,6.30
2022-09-12T00:51:10.677Z,6.85
2022-09-12T00:51:46.567Z,7.00
2022-09-12T00:52:26.103Z,6.93
2022-09-12T00:53:01.954Z,6.63
2022-09-12T00:53:35.593Z,6.82
2022-09-12T00:54:12.800Z,6.82
2022-09-12T00:54:49.350Z,7.30
2022-09-12T00:55:26.109Z,7.75
2022-09-12T00:56:01.397Z,7.90
2022-09-12T00:56:36.667Z,6.97
2022-09-12T00:57:13.955Z,6.90
2022-09-12T00:57:53.004Z,6.90
2022-09-12T00:58:29.719Z,7.05
2022-09-12T00:59:10.330Z,7.15
2022-09-12T00:59:49.050Z,7.38
2022-09-12T01:00:26.787Z,7.78
2022-09-12T01:01:01.960Z,7.60
2022-09-12T01:01:35.111Z,7.68
2022-09-12T01:02:11.622Z,6.82
2022-09-12T01:02:49.327Z,7.80
2022-09-12T01:03:24.545Z,7.43
2022-09-12T01:03:58.751Z,6.80
2022-09-12T01:04:33.885Z,6.80
2022-09-12T01:05:08.883Z,7.25
2022-09-12T01:05:49.778Z,6.88
2022-09-12T01:06:27.317Z,6.80
2022-09-12T01:07:00.271Z,7.00
2022-09-12T01:07:40.196Z,7.00
2022-09-12T01:08:13.707Z,7.00
2022-09-12T01:08:49.290Z,6.85
2022-09-12T01:09:25.580Z,6.35
2022-09-12T01:09:59.211Z,6.82
2022-09-12T01:10:34.569Z,6.28
2022-09-12T01:11:11.312Z,6.57
2022-09-12T01:11:47.293Z,6.68
2022-09-12T01:12:21.437Z,6.60
2022-09-12T01:12:55.855Z,6.47
2022-09-12T01:13:29.666Z,6.28
2022-09-12T01:14:03.677Z,6.53
2022-09-12T01:14:38.304Z,7.18
2022-09-12T01:15:11.943Z,6.80
2022-09-12T01:15:46.660Z,6.65
2022-09-12T01:16:22.282Z,6.53
2022-09-12T01:16:56.187Z,6.18
2022-09-12T01:17:36.441Z,6.72
2022-09-12T01:18:19.613Z,6.30
2022-09-12T01:19:02.749Z,6.60
2022-09-12T01:20:20.402Z,7.05
2022-09-12T01:21:11.867Z,6.35
2022-09-12T01:21:56.421Z,6.05
2022-09-12T01:22:50.625Z,6.65
2022-09-12T01:24:08.148Z,6.07
2022-09-12T01:24:54.719Z,6.53
2022-09-12T01:25:32.786Z,6.93
2022-09-12T01:26:43.705Z,6.82
2022-09-12T01:27:50.746Z,6.95
2022-09-12T01:28:57.605Z,7.13
2022-09-12T01:30:06.216Z,6.93
2022-09-12T01:30:52.863Z,6.97
2022-09-12T01:31:34.966Z,7.10
2022-09-12T01:32:16.011Z,7.15
2022-09-12T01:33:02.328Z,7.28
2022-09-12T01:33:49.129Z,7.28
2022-09-12T01:34:28.833Z,7.20
2022-09-12T01:35:08.542Z,7.35
2022-09-12T01:35:47.538Z,8.00
2022-09-12T01:36:37.040Z,7.50
2022-09-12T01:37:18.099Z,7.88
2022-09-12T01:38:02.016Z,8.55
2022-09-12T01:38:40.282Z,7.55
2022-09-12T01:39:26.886Z,7.80
2022-09-12T01:40:10.538Z,8.02
2022-09-12T01:40:50.595Z,8.15
2022-09-12T01:42:10.910Z,8.20
2022-09-12T01:42:53.977Z,8.13
2022-09-12T01:43:37.915Z,8.23
2022-09-12T01:44:26.046Z,8.10
2022-09-12T01:45:07.362Z,8.85
2022-09-12T01:45:46.857Z,8.38
2022-09-12T01:46:28.815Z,8.18
2022-09-12T01:47:10.788Z,8.35
2022-09-12T01:47:48.001Z,8.90
2022-09-12T01:48:28.580Z,8.82
2022-09-12T01:49:07.422Z,8.90
2022-09-12T01:49:50.649Z,8.98
2022-09-12T01:50:29.210Z,9.55
2022-09-12T01:51:16.790Z,8.57
2022-09-12T01:51:58.477Z,8.70
2022-09-12T01:52:38.810Z,8.93
2022-09-12T01:53:17.909Z,8.57
2022-09-12T01:53:59.088Z,9.02
2022-09-12T01:55:12.764Z,8.90
2022-09-12T01:55:52.023Z,9.13
2022-09-12T01:56:29.911Z,9.80
2022-09-12T01:57:12.156Z,9.95
2022-09-12T01:57:51.056Z,9.40
2022-09-12T01:58:31.550Z,9.15
2022-09-12T01:59:11.493Z,9.07
2022-09-12T01:59:52.514Z,9.57
2022-09-12T02:00:26.816Z,8.73
2022-09-12T02:01:07.187Z,9.98
2022-09-12T02:01:48.426Z,9.35
2022-09-12T02:02:30.992Z,9.20
2022-09-12T02:03:11.008Z,9.13
2022-09-12T02:04:23.972Z,8.25
2022-09-12T02:05:03.598Z,8.90
2022-09-12T02:05:41.496Z,9.48
2022-09-12T02:06:20.130Z,9.63
2022-09-12T02:07:00.241Z,9.88
2022-09-12T02:07:40.728Z,8.80
2022-09-12T02:08:18.805Z,9.02
2022-09-12T02:08:56.959Z,8.65
2022-09-12T02:09:37.555Z,8.77
2022-09-12T02:10:52.041Z,8.82
2022-09-12T02:11:26.281Z,9.10
2022-09-12T02:12:01.650Z,9.45
2022-09-12T02:12:43.362Z,9.90
2022-09-12T02:13:24.126Z,9.23
2022-09-12T02:14:02.997Z,9.38
2022-09-12T02:14:41.394Z,9.68
2022-09-12T02:15:18.925Z,9.40
2022-09-12T02:15:58.985Z,9.60
2022-09-12T02:16:33.502Z,9.43
2022-09-12T02:17:12.571Z,9.73
2022-09-12T02:17:48.843Z,8.85
2022-09-12T02:18:22.708Z,9.15
2022-09-12T02:18:59.716Z,8.98
2022-09-12T02:19:36.431Z,9.40
2022-09-12T02:20:31.096Z,9.43
2022-09-12T02:21:11.357Z,9.40
2022-09-12T02:21:48.907Z,9.18
2022-09-12T02:22:24.275Z,8.48
2022-09-12T02:23:00.637Z,9.15
2022-09-12T02:23:36.274Z,8.82
2022-09-12T02:24:11.345Z,9.05
2022-09-12T02:24:47.004Z,9.07
2022-09-12T02:25:21.785Z,8.85
2022-09-12T02:25:58.913Z,9.10
2022-09-12T02:26:37.307Z,9.07
2022-09-12T02:27:12.511Z,14.65
2022-09-12T02:27:47.625Z,14.60
2022-09-12T02:28:24.980Z,12.32
2022-09-12T02:28:59.253Z,10.80
2022-09-12T02:29:33.634Z,10.13
2022-09-12T02:30:08.193Z,9.65
2022-09-12T02:30:44.259Z,9.43
2022-09-12T02:31:22.218Z,9.48
2022-09-12T02:32:00.977Z,9.68
2022-09-12T02:32:38.809Z,9.38
2022-09-12T02:33:17.391Z,10.05
2022-09-12T02:33:54.354Z,9.27
2022-09-12T02:34:33.467Z,9.07
2022-09-12T02:35:09.816Z,9.40
2022-09-12T02:35:49.285Z,9.52
2022-09-12T02:36:30.143Z,9.20
2022-09-12T02:37:07.901Z,10.27
2022-09-12T02:37:47.596Z,9.55
2022-09-12T02:38:27.080Z,9.65
2022-09-12T02:39:01.255Z,9.30
2022-09-12T02:39:36.360Z,9.57
2022-09-12T02:40:11.278Z,9.43
2022-09-12T02:40:45.454Z,10.43
2022-09-12T02:41:20.368Z,9.80
2022-09-12T02:41:57.083Z,9.48
2022-09-12T02:42:30.709Z,9.35
2022-09-12T02:43:06.368Z,9.20
2022-09-12T02:43:40.032Z,9.80
2022-09-12T02:44:14.786Z,9.52
2022-09-12T02:44:49.195Z,9.60
2022-09-12T02:45:27.402Z,9.52
2022-09-12T02:46:02.686Z,9.40
2022-09-12T02:46:40.213Z,10.50
2022-09-12T02:47:16.402Z,9.80
2022-09-12T02:47:54.350Z,9.43
2022-09-12T02:48:29.233Z,10.27
2022-09-12T02:49:03.638Z,9.98
2022-09-12T02:49:38.065Z,8.88
2022-09-12T02:50:12.197Z,10.02
2022-09-12T02:50:46.357Z,10.35
2022-09-12T02:51:23.652Z,9.93
2022-09-12T02:51:57.519Z,10.15
2022-09-12T02:52:32.179Z,10.13
2022-09-12T02:53:07.336Z,9.73
2022-09-12T02:53:40.493Z,9.93
2022-09-12T02:54:15.219Z,10.45
2022-09-12T02:54:51.324Z,10.13
2022-09-12T02:55:25.378Z,10.27
2022-09-12T02:55:59.448Z,11.23
2022-09-12T02:56:34.814Z,10.25
2022-09-12T02:57:20.621Z,10.70
2022-09-12T02:57:57.242Z,10.60
2022-09-12T02:58:32.986Z,9.77
2022-09-12T02:59:08.849Z,9.75
2022-09-12T02:59:44.221Z,11.07
2022-09-12T03:00:19.367Z,9.90
2022-09-12T03:00:56.357Z,10.27
2022-09-12T03:01:45.681Z,10.68
2022-09-12T03:02:26.485Z,10.52
2022-09-12T03:03:15.051Z,10.52
2022-09-12T03:03:56.315Z,9.93
2022-09-12T03:04:48.101Z,10.40
2022-09-12T03:05:24.370Z,10.70
2022-09-12T03:06:00.176Z,10.00
2022-09-12T03:06:36.266Z,10.75
2022-09-12T03:07:14.619Z,10.40
2022-09-12T03:08:04.557Z,11.13
2022-09-12T03:08:52.714Z,41.30
2022-09-12T03:09:29.753Z,24.45
2022-09-12T03:10:06.030Z,28.33
2022-09-12T03:10:44.779Z,11.55
2022-09-12T03:11:29.499Z,10.45
2022-09-12T03:12:09.234Z,11.23
2022-09-12T03:12:48.455Z,10.00
2022-09-12T03:13:26.627Z,10.23
2022-09-12T03:14:07.042Z,10.43
2022-09-12T03:14:51.025Z,10.68
2022-09-12T03:15:31.860Z,9.73
2022-09-12T03:16:43.850Z,9.43
2022-09-12T03:17:25.274Z,11.52
2022-09-12T03:18:06.885Z,10.15
2022-09-12T03:18:51.973Z,10.73
2022-09-12T03:19:26.779Z,9.93
2022-09-12T03:20:04.918Z,9.98
2022-09-12T03:20:46.124Z,10.45
2022-09-12T03:21:24.779Z,10.13
2022-09-12T03:22:03.464Z,10.82
2022-09-12T03:22:43.511Z,9.68
2022-09-12T03:23:20.818Z,10.57
2022-09-12T03:24:01.504Z,9.65
2022-09-12T03:24:38.571Z,10.15
2022-09-12T03:25:16.641Z,9.60
2022-09-12T03:25:51.735Z,10.73
2022-09-12T03:26:29.948Z,9.65
2022-09-12T03:27:07.731Z,10.57
2022-09-12T03:27:43.582Z,10.07
2022-09-12T03:28:18.936Z,10.48
2022-09-12T03:28:54.158Z,10.63
2022-09-12T03:29:28.250Z,10.82
2022-09-12T03:30:03.865Z,10.43
2022-09-12T03:30:42.148Z,10.18
2022-09-12T03:31:15.952Z,10.93
2022-09-12T03:31:52.559Z,10.82
2022-09-12T03:32:41.380Z,10.82
2022-09-12T03:33:15.529Z,10.52
2022-09-12T03:33:52.109Z,10.98
2022-09-12T03:34:27.980Z,11.13
2022-09-12T03:35:02.704Z,11.05
2022-09-12T03:35:37.903Z,11.43
2022-09-12T03:36:17.904Z,10.98
2022-09-12T03:36:52.218Z,10.57
2022-09-12T03:37:26.008Z,11.40
2022-09-12T03:37:59.412Z,11.02
2022-09-12T03:38:34.149Z,10.77
2022-09-12T03:39:08.537Z,11.88
2022-09-12T03:39:43.046Z,11.20
2022-09-12T03:40:18.088Z,14.32
2022-09-12T03:40:54.900Z,11.48
2022-09-12T03:41:29.888Z,10.40
2022-09-12T03:42:04.380Z,10.10
2022-09-12T03:42:38.323Z,11.38
2022-09-12T03:43:12.152Z,10.98
2022-09-12T03:43:47.277Z,11.68
2022-09-12T03:44:21.402Z,10.75
2022-09-12T03:44:54.844Z,11.07
2022-09-12T03:45:31.249Z,11.57
2022-09-12T03:46:06.130Z,10.18
2022-09-12T03:46:39.771Z,10.15
2022-09-12T03:47:15.038Z,10.68
2022-09-12T03:47:48.655Z,10.23
2022-09-12T03:48:21.572Z,10.90
2022-09-12T03:48:58.012Z,10.95
2022-09-12T03:49:33.149Z,10.15
2022-09-12T03:50:07.810Z,10.35
2022-09-12T03:50:43.701Z,11.60
2022-09-12T03:51:18.392Z,10.80
2022-09-12T03:51:51.907Z,11.02
2022-09-12T03:52:26.542Z,10.20
2022-09-12T03:53:00.848Z,10.90
2022-09-12T03:53:34.425Z,10.20
2022-09-12T03:54:09.342Z,9.57
2022-09-12T03:54:42.913Z,11.10
2022-09-12T03:55:17.665Z,10.73
2022-09-12T03:55:52.660Z,10.90
2022-09-12T03:56:26.129Z,10.15
2022-09-12T03:56:59.753Z,9.75
2022-09-12T03:57:34.759Z,10.02
2022-09-12T03:58:09.715Z,10.68
2022-09-12T03:58:43.306Z,9.75
2022-09-12T03:59:18.533Z,10.00
2022-09-12T03:59:52.214Z,10.57
2022-09-12T04:00:25.934Z,10.05
2022-09-12T04:01:00.710Z,9.55
2022-09-12T04:01:35.437Z,9.88
2022-09-12T04:02:13.227Z,9.77
2022-09-12T04:02:49.111Z,10.23
2022-09-12T04:03:24.000Z,10.18
2022-09-12T04:03:59.350Z,10.57
2022-09-12T04:04:34.657Z,10.05
2022-09-12T04:05:09.599Z,9.32
2022-09-12T04:05:42.958Z,9.43
2022-09-12T04:06:18.262Z,8.85
2022-09-12T04:06:51.927Z,9.48
2022-09-12T04:07:26.198Z,9.77
2022-09-12T04:08:00.656Z,10.02
2022-09-12T04:08:35.416Z,9.63
2022-09-12T04:09:08.772Z,10.10
2022-09-12T04:09:44.177Z,8.95
2022-09-12T04:10:18.447Z,9.77
2022-09-12T04:10:52.263Z,10.18
2022-09-12T04:11:27.257Z,9.57
2022-09-12T04:12:01.996Z,9.65
2022-09-12T04:12:36.614Z,33.78
2022-09-12T04:13:11.265Z,15.93
2022-09-12T04:13:45.238Z,10.63
2022-09-12T04:14:20.177Z,10.05
2022-09-12T04:14:54.698Z,9.35
2022-09-12T04:15:28.896Z,9.50
2022-09-12T04:16:03.019Z,9.27
2022-09-12T04:16:37.465Z,12.27
2022-09-12T04:17:11.186Z,11.30
2022-09-12T04:17:43.971Z,10.20
2022-09-12T04:18:19.421Z,9.85
2022-09-12T04:18:53.330Z,9.73
2022-09-12T04:19:28.643Z,9.25
2022-09-12T04:20:03.715Z,9.07
2022-09-12T04:20:38.653Z,8.95
2022-09-12T04:21:13.295Z,9.00
2022-09-12T04:21:48.559Z,8.93
2022-09-12T04:22:22.343Z,9.43
2022-09-12T04:22:55.942Z,9.48
2022-09-12T04:23:32.030Z,8.70
2022-09-12T04:24:06.596Z,8.63
2022-09-12T04:24:41.379Z,9.32
2022-09-12T04:25:16.203Z,9.43
2022-09-12T04:25:55.854Z,8.98
2022-09-12T04:26:32.413Z,9.85
2022-09-12T04:27:07.902Z,9.35
2022-09-12T04:27:42.583Z,9.43
2022-09-12T04:28:18.022Z,11.95
2022-09-12T04:28:55.385Z,9.68
2022-09-12T04:29:32.316Z,8.75
2022-09-12T04:30:06.839Z,10.32
2022-09-12T04:30:41.048Z,9.50
2022-09-12T04:31:18.429Z,9.88
2022-09-12T04:31:52.624Z,10.70
2022-09-12T04:32:27.325Z,10.50
2022-09-12T04:33:07.895Z,9.95
2022-09-12T04:33:42.172Z,9.90
2022-09-12T04:34:15.884Z,10.70
2022-09-12T04:34:53.785Z,11.70
2022-09-12T04:35:28.378Z,10.65
2022-09-12T04:36:06.587Z,9.52
2022-09-12T04:36:41.140Z,9.43
2022-09-12T04:37:14.296Z,9.07
2022-09-12T04:37:49.034Z,9.43
2022-09-12T04:38:23.646Z,9.40
2022-09-12T04:38:57.455Z,9.75
2022-09-12T04:39:31.158Z,9.18
2022-09-12T04:40:06.297Z,9.88
2022-09-12T04:40:40.679Z,9.80
2022-09-12T04:41:14.681Z,9.38
2022-09-12T04:41:50.822Z,9.60
2022-09-12T04:42:25.166Z,9.40
2022-09-12T04:42:59.814Z,10.00
2022-09-12T04:43:35.367Z,9.32
2022-09-12T04:44:10.577Z,9.57
2022-09-12T04:44:44.689Z,10.48
2022-09-12T04:45:21.015Z,10.52
2022-09-12T04:45:55.082Z,10.25
2022-09-12T04:46:29.077Z,10.18
2022-09-12T04:47:05.140Z,10.43
2022-09-12T04:47:38.977Z,11.73
2022-09-12T04:48:13.063Z,10.60
2022-09-12T04:48:47.681Z,10.38
2022-09-12T04:49:21.576Z,10.80
2022-09-12T04:49:58.707Z,11.15
2022-09-12T04:50:32.311Z,10.68
2022-09-12T04:51:09.571Z,10.68
2022-09-12T04:51:44.949Z,11.48
2022-09-12T04:52:18.183Z,10.95
2022-09-12T04:52:52.699Z,11.02
2022-09-12T04:53:27.307Z,10.85
2022-09-12T04:54:02.346Z,10.57
2022-09-12T04:54:42.269Z,10.32
2022-09-12T04:55:15.200Z,10.75
2022-09-12T04:55:49.503Z,10.90
2022-09-12T04:56:24.423Z,10.75
2022-09-12T04:56:59.713Z,10.30
2022-09-12T04:57:33.884Z,10.88
2022-09-12T04:58:08.705Z,10.00
2022-09-12T04:58:43.214Z,10.35
2022-09-12T04:59:17.897Z,10.35
2022-09-12T04:59:53.161Z,10.85
2022-09-12T05:00:26.820Z,11.60
2022-09-12T05:01:05.073Z,10.63
2022-09-12T05:01:41.080Z,11.52
2022-09-12T05:02:15.737Z,10.77
2022-09-12T05:02:49.965Z,10.68
2022-09-12T05:03:25.063Z,10.43
2022-09-12T05:04:00.044Z,10.38
2022-09-12T05:04:33.592Z,10.45
2022-09-12T05:05:12.183Z,9.73
2022-09-12T05:05:46.806Z,9.43
2022-09-12T05:06:21.008Z,9.82
2022-09-12T05:06:55.249Z,9.55
2022-09-12T05:07:30.435Z,11.00
2022-09-12T05:08:05.154Z,10.50
2022-09-12T05:08:39.362Z,10.73
2022-09-12T05:09:14.865Z,11.55
2022-09-12T05:09:49.993Z,10.35
2022-09-12T05:10:24.648Z,9.52
2022-09-12T05:10:59.063Z,10.13
2022-09-12T05:12:00.080Z,11.05
2022-09-12T05:12:29.547Z,10.90
2022-09-12T05:13:04.117Z,9.45
2022-09-12T05:13:37.729Z,10.40
2022-09-12T05:14:12.636Z,9.70
2022-09-12T05:14:46.634Z,10.02
2022-09-12T05:15:22.757Z,9.55
2022-09-12T05:15:56.517Z,9.68
2022-09-12T05:16:32.013Z,9.23
2022-09-12T05:17:07.597Z,9.75
2022-09-12T05:17:41.138Z,10.82
2022-09-12T05:18:15.341Z,10.25
2022-09-12T05:18:50.886Z,9.73
2022-09-12T05:19:25.088Z,14.32
2022-09-12T05:20:01.392Z,14.88
2022-09-12T05:20:37.610Z,10.18
2022-09-12T05:21:13.077Z,10.00
2022-09-12T05:21:48.788Z,9.95
2022-09-12T05:22:23.495Z,9.80
2022-09-12T05:22:57.874Z,8.80
2022-09-12T05:23:34.406Z,11.25
2022-09-12T05:24:09.015Z,8.82
2022-09-12T05:24:48.537Z,8.77
2022-09-12T05:25:26.571Z,9.00
2022-09-12T05:26:00.751Z,8.75
2022-09-12T05:26:34.592Z,9.50
2022-09-12T05:27:10.326Z,9.98
2022-09-12T05:27:47.446Z,9.38
2022-09-12T05:28:25.578Z,9.32
2022-09-12T05:29:01.371Z,9.75
2022-09-12T05:29:35.020Z,9.85
2022-09-12T05:30:10.299Z,8.88
2022-09-12T05:30:44.799Z,9.70
2022-09-12T05:31:20.573Z,9.02
2022-09-12T05:31:55.297Z,8.40
2022-09-12T05:32:32.437Z,9.30
2022-09-12T05:33:07.159Z,9.13
2022-09-12T05:33:42.655Z,8.90
2022-09-12T05:34:16.406Z,9.05
2022-09-12T05:34:51.163Z,8.60
2022-09-12T05:35:25.284Z,8.52
2022-09-12T05:36:01.561Z,8.38
2022-09-12T05:36:37.686Z,9.10
2022-09-12T05:37:11.047Z,8.38
2022-09-12T05:37:44.797Z,8.57
2022-09-12T05:38:20.323Z,8.93
2022-09-12T05:38:54.592Z,48.35
2022-09-12T05:39:29.645Z,21.42
2022-09-12T05:40:08.226Z,86.95
2022-09-12T05:40:42.486Z,71.38
2022-09-12T05:41:21.870Z,14.23
2022-09-12T05:41:57.933Z,9.23
2022-09-12T05:42:33.128Z,9.75
2022-09-12T05:43:07.399Z,8.55
2022-09-12T05:43:41.670Z,8.65
2022-09-12T05:44:18.375Z,8.57
2022-09-12T05:44:52.271Z,8.63
2022-09-12T05:45:27.674Z,8.32
2022-09-12T05:46:05.041Z,8.50
2022-09-12T05:46:39.326Z,8.43
2022-09-12T05:47:14.463Z,8.55
2022-09-12T05:47:48.217Z,8.65
2022-09-12T05:48:21.539Z,9.52
2022-09-12T05:48:57.262Z,8.35
2022-09-12T05:49:31.590Z,9.00
2022-09-12T05:50:11.454Z,8.48
2022-09-12T05:50:47.016Z,8.10
2022-09-12T05:51:22.774Z,7.93
2022-09-12T05:51:57.921Z,8.38
2022-09-12T05:52:33.591Z,7.88
2022-09-12T05:53:09.309Z,7.72
2022-09-12T05:53:43.981Z,15.95
2022-09-12T05:54:19.537Z,9.07
2022-09-12T05:54:54.700Z,8.50
2022-09-12T05:55:29.402Z,8.05
2022-09-12T05:56:04.957Z,8.73
2022-09-12T05:56:40.855Z,8.38
2022-09-12T05:57:15.040Z,8.00
2022-09-12T05:57:50.624Z,8.05
2022-09-12T05:58:24.743Z,8.00
2022-09-12T05:58:59.575Z,7.97
2022-09-12T05:59:35.893Z,9.18
2022-09-12T06:00:10.775Z,7.75
2022-09-12T06:00:47.069Z,7.43
2022-09-12T06:01:22.398Z,8.10
2022-09-12T06:01:56.731Z,8.60
2022-09-12T06:02:31.141Z,8.65
2022-09-12T06:03:07.206Z,8.35
2022-09-12T06:03:42.153Z,8.52
2022-09-12T06:04:16.591Z,8.43
2022-09-12T06:04:51.529Z,8.38
2022-09-12T06:05:25.156Z,8.18
2022-09-12T06:05:59.250Z,7.63
2022-09-12T06:06:38.000Z,8.32
2022-09-12T06:07:12.150Z,7.88
2022-09-12T06:07:47.124Z,7.75
2022-09-12T06:08:21.898Z,8.30
2022-09-12T06:08:57.922Z,8.07
2022-09-12T06:09:32.803Z,8.32
2022-09-12T06:10:07.753Z,8.43
2022-09-12T06:10:42.174Z,8.02
2022-09-12T06:11:17.625Z,8.40
2022-09-12T06:11:52.526Z,9.25
2022-09-12T06:12:27.578Z,8.15
2022-09-12T06:13:04.732Z,8.07
2022-09-12T06:13:40.781Z,7.97
2022-09-12T06:14:15.669Z,8.55
2022-09-12T06:14:50.270Z,7.90
2022-09-12T06:15:23.873Z,7.85
2022-09-12T06:16:04.279Z,8.82
2022-09-12T06:17:15.013Z,8.05
2022-09-12T06:17:51.453Z,7.78
2022-09-12T06:18:25.890Z,7.97
2022-09-12T06:19:01.572Z,8.20
2022-09-12T06:19:35.788Z,7.75
2022-09-12T06:20:11.371Z,8.65
2022-09-12T06:20:46.501Z,8.20
2022-09-12T06:21:20.139Z,8.65
2022-09-12T06:21:57.421Z,9.00
2022-09-12T06:22:31.528Z,8.52
2022-09-12T06:23:05.797Z,7.63
2022-09-12T06:23:41.040Z,8.10
2022-09-12T06:24:14.945Z,7.70
2022-09-12T06:24:49.849Z,9.00
2022-09-12T06:25:23.782Z,31.40
2022-09-12T06:25:58.455Z,124.60
2022-09-12T06:26:33.637Z,180.13
2022-09-12T06:27:07.468Z,66.28
2022-09-12T06:27:42.305Z,15.15
2022-09-12T06:28:16.788Z,10.57
2022-09-12T06:28:52.209Z,9.68
2022-09-12T06:29:28.192Z,8.55
2022-09-12T06:30:02.918Z,9.20
2022-09-12T06:30:35.998Z,8.02
2022-09-12T06:31:11.935Z,8.57
2022-09-12T06:31:46.530Z,7.93
2022-09-12T06:32:22.094Z,7.35
2022-09-12T06:32:57.593Z,7.28
2022-09-12T06:33:31.889Z,7.50
2022-09-12T06:34:07.426Z,6.70
2022-09-12T06:34:41.641Z,7.30
2022-09-12T06:35:17.043Z,7.20
2022-09-12T06:35:52.227Z,7.78
2022-09-12T06:36:27.112Z,8.00
2022-09-12T06:37:04.788Z,7.90
2022-09-12T06:37:40.787Z,7.75
2022-09-12T06:38:14.971Z,7.65
2022-09-12T06:38:52.024Z,7.30
2022-09-12T06:39:26.364Z,8.07
2022-09-12T06:40:01.945Z,8.05
2022-09-12T06:40:37.836Z,7.80
2022-09-12T06:41:13.047Z,7.78
2022-09-12T06:41:48.453Z,7.72
2022-09-12T06:42:22.685Z,7.50
2022-09-12T06:43:04.616Z,7.43
2022-09-12T06:43:40.718Z,7.88
2022-09-12T06:44:16.309Z,7.18
2022-09-12T06:44:51.350Z,7.80
2022-09-12T06:45:26.734Z,7.63
2022-09-12T06:46:00.500Z,8.30
2022-09-12T06:46:35.066Z,8.35
2022-09-12T06:47:10.336Z,8.00
2022-09-12T06:47:44.999Z,8.82
2022-09-12T06:48:19.881Z,8.27
2022-09-12T06:48:56.056Z,7.68
2022-09-12T06:49:32.328Z,7.88
2022-09-12T06:50:09.413Z,7.93
2022-09-12T06:50:43.536Z,7.88
2022-09-12T06:51:19.981Z,7.65
2022-09-12T06:51:53.436Z,7.63
2022-09-12T06:52:29.865Z,7.65
2022-09-12T06:53:05.680Z,7.75
2022-09-12T06:53:40.602Z,7.47
2022-09-12T06:54:16.186Z,7.47
2022-09-12T06:54:51.164Z,8.23
2022-09-12T06:55:27.700Z,7.90
2022-09-12T06:56:04.512Z,7.95
2022-09-12T06:56:38.136Z,7.65
2022-09-12T06:57:13.888Z,7.40
2022-09-12T06:57:48.329Z,7.45
2022-09-12T06:58:22.787Z,7.50
2022-09-12T06:58:59.545Z,8.73
2022-09-12T06:59:33.536Z,8.13
2022-09-12T07:00:08.102Z,7.35
2022-09-12T07:00:43.503Z,7.88
2022-09-12T07:01:20.043Z,7.90
2022-09-12T07:01:55.050Z,7.43
2022-09-12T07:02:29.647Z,7.35
2022-09-12T07:03:03.831Z,11.90
2022-09-12T07:03:39.493Z,8.48
2022-09-12T07:04:13.139Z,7.13
2022-09-12T07:04:50.164Z,7.70
2022-09-12T07:05:24.394Z,7.25
2022-09-12T07:05:58.568Z,7.25
2022-09-12T07:06:33.985Z,6.47
2022-09-12T07:07:08.632Z,6.55
2022-09-12T07:07:43.690Z,7.28
2022-09-12T07:08:19.448Z,68.45
2022-09-12T07:08:53.512Z,88.90
2022-09-12T07:09:29.816Z,18.25
2022-09-12T07:10:04.650Z,10.77
2022-09-12T07:10:37.814Z,8.43
2022-09-12T07:11:13.510Z,8.07
2022-09-12T07:11:47.504Z,7.60
2022-09-12T07:12:23.743Z,6.78
2022-09-12T07:12:58.134Z,7.13
2022-09-12T07:13:32.027Z,6.40
2022-09-12T07:14:08.040Z,6.18
2022-09-12T07:14:42.088Z,6.85
2022-09-12T07:15:18.060Z,6.30
2022-09-12T07:15:53.146Z,5.95
2022-09-12T07:16:26.848Z,6.72
2022-09-12T07:17:02.234Z,6.28
2022-09-12T07:17:36.557Z,6.32
2022-09-12T07:18:10.836Z,6.32
2022-09-12T07:18:46.926Z,5.70
2022-09-12T07:19:21.254Z,5.40
2022-09-12T07:19:55.893Z,5.43
2022-09-12T07:20:32.508Z,5.47
2022-09-12T07:21:08.101Z,5.63
2022-09-12T07:21:43.189Z,5.90
2022-09-12T07:22:15.988Z,6.20
2022-09-12T07:22:52.134Z,5.82
2022-09-12T07:23:27.386Z,6.43
2022-09-12T07:24:02.068Z,7.38
2022-09-12T07:24:39.353Z,5.65
2022-09-12T07:25:13.785Z,6.60
2022-09-12T07:25:53.861Z,6.22
2022-09-12T07:27:02.652Z,6.10
2022-09-12T07:27:38.361Z,5.85
2022-09-12T07:28:12.970Z,5.80
2022-09-12T07:28:46.723Z,8.48
2022-09-12T07:29:38.068Z,6.70
2022-09-12T07:30:13.489Z,6.05
2022-09-12T07:30:47.709Z,6.10
2022-09-12T07:31:23.858Z,5.63
2022-09-12T07:31:58.573Z,5.63
2022-09-12T07:32:33.250Z,5.35
2022-09-12T07:33:09.379Z,6.22
2022-09-12T07:33:44.032Z,6.05
2022-09-12T07:34:17.951Z,6.38
2022-09-12T07:34:53.493Z,5.82
2022-09-12T07:35:26.599Z,5.25
2022-09-12T07:36:02.603Z,5.45
2022-09-12T07:36:37.888Z,6.13
2022-09-12T07:37:12.317Z,5.90
2022-09-12T07:37:48.198Z,5.90
2022-09-12T07:38:24.579Z,5.10
2022-09-12T07:38:58.575Z,5.47
2022-09-12T07:39:34.336Z,5.57
2022-09-12T07:40:11.769Z,5.53
2022-09-12T07:40:45.944Z,5.60
2022-09-12T07:41:22.071Z,11.52
2022-09-12T07:41:55.680Z,21.83
2022-09-12T07:42:29.714Z,40.17
2022-09-12T07:43:03.857Z,68.35
2022-09-12T07:43:39.059Z,6.65
2022-09-12T07:44:14.030Z,6.63
2022-09-12T07:44:50.061Z,7.07
2022-09-12T07:45:24.196Z,6.30
2022-09-12T07:45:59.072Z,6.35
2022-09-12T07:46:33.872Z,7.55
2022-09-12T07:47:10.549Z,5.30
2022-09-12T07:47:44.462Z,5.97
2022-09-12T07:48:19.439Z,6.10
2022-09-12T07:48:54.623Z,6.70
2022-09-12T07:49:29.047Z,5.85
2022-09-12T07:50:05.128Z,5.65
2022-09-12T07:50:43.171Z,6.10
2022-09-12T07:51:19.721Z,5.90
2022-09-12T07:51:55.150Z,5.93
2022-09-12T07:52:29.000Z,6.70
2022-09-12T07:53:04.265Z,6.00
2022-09-12T07:53:40.286Z,6.38
2022-09-12T07:54:16.569Z,6.07
2022-09-12T07:54:51.334Z,6.32
2022-09-12T07:55:27.488Z,5.72
2022-09-12T07:56:01.163Z,5.15
2022-09-12T07:56:38.891Z,6.55
2022-09-12T07:57:16.476Z,6.07
2022-09-12T07:57:51.220Z,5.80
2022-09-12T07:58:24.916Z,5.90
2022-09-12T07:59:00.228Z,5.97
2022-09-12T07:59:52.093Z,5.95
2022-09-12T08:00:36.542Z,5.72
2022-09-12T08:01:13.099Z,5.60
2022-09-12T08:01:48.170Z,12.25
2022-09-12T08:02:23.807Z,6.18
2022-09-12T08:02:58.544Z,5.65
2022-09-12T08:03:32.864Z,5.75
2022-09-12T08:04:07.634Z,5.88
2022-09-12T08:04:42.314Z,6.25
2022-09-12T08:05:16.609Z,5.88
2022-09-12T08:05:52.141Z,6.00